Latest Weather Observations for Jervois

IDD60801

Issued at 8:01 pm CST Saturday 13 February 2016 (issued every 30 minutes, with the page automatically refreshed every 10 minutes)

About weather observations | Map of weather stations | Latest weather observations for NT | Other Formats
Station Details ID: 015602 Name: JERVOIS Lat: -22.95 Lon: 136.14 Height: 328.0 m
Data from the previous 72 hours. | See also: Recent months at Jervois
Date/Time
CST
Temp
°C
App
Temp
°C
Dew
Point
Rel
Hum
%
Delta-T
°C
Wind Press
QNH
hPa
Press
MSL
hPa
Rain
since 9 am
mm
Dir
 
Spd
km/h
Gust
km/h
Spd
kts
Gust
kts
13/08:00pm 31.4 30.4 10.9 28 12.0 SE 7 11 4 6 1009.7 - 0.0
13/07:30pm 33.0 31.1 8.9 22 13.8 SE 9 11 5 6 1009.3 - 0.0
13/07:00pm 34.9 33.4 9.2 20 14.9 SSE 7 9 4 5 1009.0 - 0.0
13/06:30pm 37.0 33.1 3.4 12 18.0 SE 13 19 7 10 1008.7 - 0.0
13/06:00pm 38.1 33.4 0.9 10 19.3 SE 15 24 8 13 1008.6 - 0.0
13/05:30pm 38.8 34.7 2.0 10 19.5 S 13 20 7 11 1008.5 - 0.0
13/05:00pm 39.2 34.3 1.8 10 19.8 S 17 32 9 17 1008.5 - 0.0
13/04:30pm 39.4 34.7 1.0 9 20.1 SSE 15 24 8 13 1008.5 - 0.0
13/04:00pm 39.3 34.9 2.9 10 19.6 SE 15 26 8 14 1008.6 - 0.0
13/03:30pm 39.5 34.0 0.4 9 20.3 S 19 26 10 14 1008.8 - 0.0
13/03:00pm 39.2 34.3 2.2 10 19.7 SE 17 28 9 15 1008.9 - 0.0
13/02:30pm 39.2 35.1 4.2 11 19.2 SSE 15 28 8 15 1009.3 - 0.0
13/02:00pm 38.9 34.8 4.6 12 18.9 SSE 15 35 8 19 1009.6 - 0.0
13/01:30pm 38.2 34.0 4.0 12 18.6 ESE 15 28 8 15 1010.0 - 0.0
13/01:00pm 38.4 35.3 5.6 13 18.3 SE 11 22 6 12 1010.4 - 0.0
13/12:30pm 38.0 33.5 4.3 12 18.4 ESE 17 26 9 14 1010.7 - 0.0
13/12:00pm 37.7 34.2 5.4 13 17.9 ESE 13 20 7 11 1011.1 - 0.0
13/11:30am 37.1 34.0 7.1 16 17.0 E 13 20 7 11 1011.6 - 0.0
13/11:00am 36.7 33.5 6.9 16 16.8 ESE 13 19 7 10 1012.0 - 0.0
13/10:30am 35.8 32.6 6.7 16 16.3 SE 13 19 7 10 1012.3 - 0.0
13/10:00am 35.4 33.2 7.7 18 15.7 SE 9 15 5 8 1012.5 - 0.0
13/09:30am 34.4 32.1 7.6 19 15.1 SSE 9 15 5 8 1012.6 - 0.0
13/09:00am 32.9 33.2 12.1 28 12.5 SW 2 6 1 3 1012.7 - 0.0
13/08:30am 31.2 32.0 13.7 34 10.7 SSW 2 6 1 3 1012.7 - 0.0
13/08:00am 28.9 29.6 13.5 38 9.3 SSW 2 7 1 4 1012.6 - 0.0
13/07:30am 26.9 27.6 12.2 40 8.6 CALM 0 0 0 0 1012.5 - 0.0
13/07:00am 24.4 23.5 11.3 43 7.5 SSW 7 9 4 5 1012.4 - 0.0
13/06:30am 21.2 22.1 15.0 67 3.7 S 4 7 2 4 1012.2 - 0.0
13/06:00am 21.1 22.1 14.2 64 4.1 SSW 2 7 1 4 1011.8 - 0.0
13/05:30am 22.3 22.0 13.4 57 5.2 SW 7 9 4 5 1011.3 - 0.0
13/05:00am 23.4 22.2 11.7 47 6.7 SSW 9 15 5 8 1011.0 - 0.0
13/04:30am 23.0 22.7 13.3 54 5.7 SSW 7 9 4 5 1011.0 - 0.0
13/04:00am 23.8 22.7 13.1 51 6.3 SW 11 15 6 8 1010.9 - 0.0
13/03:30am 24.2 23.8 13.0 49 6.6 W 7 11 4 6 1010.6 - 0.0
13/02:30am 24.4 24.3 14.0 52 6.2 WSW 7 11 4 6 1010.5 - 0.0
13/02:00am 25.2 24.6 13.4 48 7.0 W 9 15 5 8 1010.6 - 0.0
13/01:30am 24.3 24.7 15.3 57 5.5 W 7 9 4 5 1010.8 - 0.0
13/01:00am 24.9 26.1 15.0 54 6.0 WSW 2 6 1 3 1011.1 - 0.0
13/12:30am 26.3 25.7 13.4 45 7.7 W 9 15 5 8 1010.9 - 0.0
13/12:00am 25.8 26.6 15.8 54 6.2 NW 6 7 3 4 1011.1 - 0.0
 
Date/Time
CST
Temp
°C
App
Temp
°C
Dew
Point
Rel
Hum
%
Delta-T
°C
Wind Press
QNH
hPa
Press
MSL
hPa
Rain
since 9 am
mm
Dir
 
Spd
km/h
Gust
km/h
Spd
kts
Gust
kts
12/11:30pm 26.1 26.6 15.0 50 6.8 WSW 6 7 3 4 1011.1 - 0.0
12/11:00pm 25.8 26.9 16.7 57 5.7 WSW 6 7 3 4 1011.2 - 0.0
12/10:30pm 26.2 28.4 16.6 55 6.0 CALM 0 0 0 0 1011.1 - 0.0
12/10:00pm 26.8 27.9 17.0 55 6.2 SW 7 7 4 4 1011.2 - 0.0
12/09:30pm 27.5 28.2 16.1 49 7.1 NE 7 7 4 4 1011.1 - 0.0
12/09:00pm 28.1 29.3 15.9 47 7.6 NE 4 7 2 4 1010.8 - 0.0
12/08:30pm 29.2 31.2 16.0 44 8.3 CALM 0 0 0 0 1010.8 - 0.0
12/08:00pm 30.3 31.8 17.6 46 8.2 SSE 6 6 3 3 1010.5 - 0.0
12/07:30pm 32.4 32.8 14.8 34 11.0 SE 6 7 3 4 1010.2 - 0.0
12/07:00pm 34.1 32.4 9.7 22 14.2 ESE 9 13 5 7 1010.0 - 0.0
12/06:30pm 35.8 34.1 10.0 20 15.2 ESE 9 15 5 8 1009.8 - 0.0
12/06:00pm 37.0 34.4 7.9 17 16.7 ESE 11 17 6 9 1009.6 - 0.0
12/05:30pm 37.4 34.6 6.8 15 17.3 E 11 22 6 12 1009.6 - 0.0
12/05:00pm 37.5 33.3 5.7 14 17.7 ESE 17 24 9 13 1009.5 - 0.0
12/04:30pm 37.7 34.3 5.8 14 17.8 ESE 13 20 7 11 1009.5 - 0.0
12/04:00pm 38.2 34.5 6.2 14 18.0 SE 15 26 8 14 1009.6 - 0.0
12/03:30pm 38.9 36.5 7.0 14 18.2 S 9 26 5 14 1009.7 - 0.0
12/03:00pm 38.4 34.5 5.2 13 18.4 SE 15 33 8 18 1010.0 - 0.0
12/02:30pm 38.6 36.0 6.0 13 18.3 SSE 9 17 5 9 1010.3 - 0.0
12/02:00pm 37.5 32.7 4.9 13 17.9 E 19 26 10 14 1010.7 - 0.0
12/01:30pm 37.7 32.9 4.7 13 18.1 E 19 22 10 12 1011.0 - 0.0
12/01:00pm 37.8 35.2 6.3 14 17.7 NNE 9 22 5 12 1011.4 - 0.0
12/12:30pm 37.4 33.6 5.7 14 17.6 ESE 15 28 8 15 1011.9 - 0.0
12/12:00pm 37.0 33.4 4.8 13 17.6 E 13 22 7 12 1012.3 - 0.0
12/11:30am 36.7 32.5 3.8 13 17.7 E 15 24 8 13 1012.7 - 0.0
12/11:00am 36.3 34.4 7.4 17 16.4 ESE 7 11 4 6 1012.9 - 0.0
12/10:30am 35.8 35.0 11.8 23 14.5 SSW 7 9 4 5 1013.2 - 0.0
12/10:00am 34.7 34.4 11.5 24 13.9 SSW 4 9 2 5 1013.4 - 0.0
12/09:30am 33.7 34.5 12.6 27 12.8 CALM 0 6 0 3 1013.5 - 0.0
12/09:00am 32.0 31.0 11.1 27 12.3 SSE 7 11 4 6 1013.5 - 0.0
12/08:30am 30.6 31.5 12.8 33 10.7 CALM 0 0 0 0 1013.3 - 0.0
12/08:00am 28.6 29.5 12.8 37 9.4 CALM 0 6 0 3 1013.3 - 0.0
12/07:30am 26.3 27.9 15.0 49 6.9 CALM 0 6 0 3 1013.1 - 0.0
12/07:00am 23.9 24.5 14.2 54 5.8 WNW 4 7 2 4 1012.9 - 0.0
12/06:30am 22.7 22.1 12.3 52 6.0 WNW 7 9 4 5 1012.6 - 0.0
12/06:00am 22.7 21.4 11.4 49 6.4 W 9 11 5 6 1012.3 - 0.0
12/05:30am 21.5 21.8 15.0 66 3.9 WSW 7 9 4 5 1011.8 - 0.0
12/05:00am 22.3 22.1 13.0 55 5.4 SSW 6 7 3 4 1011.4 - 0.0
12/04:30am 22.0 22.0 14.1 61 4.7 SSW 7 9 4 5 1011.6 - 0.0
12/04:00am 23.1 22.8 12.8 52 6.0 S 6 9 3 5 1011.4 - 0.0
12/03:30am 23.6 22.4 12.8 50 6.3 S 11 19 6 10 1011.1 - 0.0
12/03:00am 23.3 22.8 12.8 51 6.1 W 7 11 4 6 1010.7 - 0.0
12/02:30am 23.1 24.0 15.0 60 4.9 W 4 7 2 4 1010.7 - 0.0
12/02:00am 23.2 23.6 15.3 61 4.8 W 7 9 4 5 1010.9 - 0.0
12/01:30am 22.9 23.5 15.3 62 4.6 NW 6 7 3 4 1011.2 - 0.0
12/01:00am 23.6 25.2 16.0 62 4.7 NNE 2 6 1 3 1011.4 - 0.0
12/12:30am 25.2 24.9 12.8 46 7.3 NNE 6 7 3 4 1011.6 - 0.0
 
Date/Time
CST
Temp
°C
App
Temp
°C
Dew
Point
Rel
Hum
%
Delta-T
°C
Wind Press
QNH
hPa
Press
MSL
hPa
Rain
since 9 am
mm
Dir
 
Spd
km/h
Gust
km/h
Spd
kts
Gust
kts
11/11:30pm 25.8 26.4 15.2 52 6.5 E 6 6 3 3 1012.0 - 0.0
11/11:00pm 27.6 27.1 12.6 39 8.9 E 7 9 4 5 1012.0 - 0.0
11/10:30pm 28.4 26.8 10.2 32 10.4 ESE 9 13 5 7 1011.9 - 0.0
11/10:00pm 28.6 27.1 10.5 32 10.4 ESE 9 11 5 6 1011.8 - 0.0
11/09:30pm 28.8 27.4 10.8 32 10.4 ESE 9 11 5 6 1011.6 - 0.0
11/09:00pm 29.4 27.7 10.0 30 11.1 ESE 9 11 5 6 1011.2 - 0.0
11/08:30pm 30.3 28.7 10.2 28 11.6 SE 9 13 5 7 1011.0 - 0.0
11/08:00pm 31.5 29.2 9.0 24 12.8 SE 11 15 6 8 1010.6 - 0.0
11/07:30pm 32.2 30.2 8.6 23 13.4 SE 9 15 5 8 1010.3 - 0.0
11/07:00pm 34.4 30.7 6.1 17 15.6 SE 15 22 8 12 1009.9 - 0.0
11/06:30pm 35.6 30.8 4.9 15 16.7 SE 19 32 10 17 1009.5 - 0.0
11/06:00pm 36.3 31.1 3.6 13 17.5 SE 20 32 11 17 1009.2 - 0.0
11/05:30pm 36.8 31.6 3.7 13 17.8 SE 20 33 11 18 1009.0 - 0.0
11/05:00pm 37.0 31.8 3.4 12 18.0 ESE 20 30 11 16 1008.8 - 0.0
11/04:30pm 37.3 32.6 3.4 12 18.2 SSE 17 28 9 15 1008.7 - 0.0
11/04:00pm 37.5 31.5 3.5 12 18.3 ESE 24 32 13 17 1008.7 - 0.0
11/03:30pm 37.3 32.3 3.8 12 18.1 ESE 19 32 10 17 1009.0 - 0.0
11/03:00pm 37.2 31.7 3.9 12 18.0 ESE 22 37 12 20 1009.2 - 0.0
11/02:30pm 37.2 31.9 5.0 13 17.7 ESE 22 32 12 17 1009.3 - 0.0
11/02:00pm 37.2 32.3 5.0 13 17.7 SE 20 46 11 25 1009.6 - 0.0
11/01:30pm 37.1 33.2 7.1 16 17.0 SE 17 30 9 16 1010.0 - 0.0
11/01:00pm 36.7 33.2 7.3 16 16.7 SE 15 26 8 14 1010.4 - 0.0
11/12:30pm 36.1 32.3 7.6 17 16.2 ESE 17 28 9 15 1010.9 - 0.0
11/12:00pm 35.8 33.1 10.2 21 15.1 E 15 28 8 15 1011.2 - 0.0
11/11:30am 35.1 31.9 11.1 23 14.3 E 19 30 10 16 1011.7 - 0.0
11/11:00am 34.6 31.4 11.3 24 13.9 ESE 19 24 10 13 1012.1 - 0.0
11/10:30am 34.2 31.2 12.4 26 13.2 E 20 30 11 16 1012.3 - 0.0
11/10:00am 33.6 30.8 12.7 28 12.7 ENE 19 28 10 15 1012.5 - 0.0
11/09:30am 32.4 31.0 13.4 31 11.6 ESE 13 20 7 11 1012.7 - 0.0
11/09:00am 31.3 31.4 13.8 34 10.7 E 6 11 3 6 1012.8 - 0.0
11/08:30am 29.2 29.6 12.6 36 9.9 SSE 2 7 1 4 1012.8 - 0.0
11/08:00am 28.0 27.3 11.3 35 9.7 ESE 6 9 3 5 1012.5 - 0.0
11/07:30am 26.4 26.9 12.7 42 8.1 S 2 6 1 3 1012.3 - 0.0
11/07:00am 23.9 25.5 15.0 57 5.4 CALM 0 0 0 0 1012.0 - 0.0
11/06:30am 22.1 23.6 16.6 71 3.4 SSW 4 7 2 4 1011.7 - 0.0
11/06:00am 22.4 23.2 15.9 66 4.0 SSW 6 9 3 5 1011.2 - 0.0
11/05:30am 23.3 23.6 15.0 59 5.0 WSW 7 11 4 6 1010.8 - 0.0
11/05:00am 23.7 23.8 15.5 60 5.0 WSW 9 13 5 7 1010.5 - 0.0
11/04:30am 23.5 23.7 16.8 66 4.2 WSW 11 13 6 7 1010.1 - 0.0
11/04:00am 23.5 26.1 17.5 69 3.8 CALM 0 2 0 1 1010.1 - 0.0
11/03:30am 24.4 25.3 16.7 62 4.8 WSW 7 11 4 6 1010.0 - 0.0
11/03:00am 24.6 25.6 16.8 62 4.9 SW 7 9 4 5 1010.0 - 0.0
11/02:30am 25.1 25.6 16.6 59 5.3 SSW 9 11 5 6 1010.0 - 0.0
11/02:00am 25.0 25.8 17.2 62 4.9 SSW 9 11 5 6 1010.2 - 0.0
11/01:30am 25.1 25.9 17.3 62 4.9 SSW 9 11 5 6 1010.2 - 0.0
11/01:00am 25.7 27.0 17.5 60 5.2 SSW 7 11 4 6 1010.4 - 0.0
11/12:30am 26.3 27.5 17.3 57 5.7 SW 7 11 4 6 1010.5 - 0.0
11/12:00am 26.7 27.8 17.2 56 6.0 SSW 7 11 4 6 1010.7 - 0.0
 
Date/Time
CST
Temp
°C
App
Temp
°C
Dew
Point
Rel
Hum
%
Delta-T
°C
Wind Press
QNH
hPa
Press
MSL
hPa
Rain
since 9 am
mm
Dir
 
Spd
km/h
Gust
km/h
Spd
kts
Gust
kts
10/11:30pm 26.6 27.9 17.5 57 5.8 S 7 13 4 7 1010.9 - 0.0
10/11:00pm 26.6 30.0 19.4 64 4.7 CALM 0 0 0 0 1011.0 - 0.0
10/10:30pm 27.1 28.8 18.4 59 5.6 E 7 7 4 4 1011.0 - 0.0
10/10:00pm 27.8 30.9 18.6 57 6.0 CALM 0 0 0 0 1010.8 - 0.0
10/09:30pm 29.4 31.2 18.3 51 7.2 E 6 7 3 4 1010.7 - 0.0
10/09:00pm 30.0 30.9 16.6 44 8.5 ENE 7 9 4 5 1010.3 - 0.0
10/08:30pm 31.3 30.8 14.9 37 10.2 ENE 11 15 6 8 1010.0 - 0.0

Other Formats:

Comma delimited format used in spreadsheet applications
http://www.bom.gov.au/fwo/IDD60801/IDD60801.94327.axf

JavaScript Object Notation format (JSON) in row-major order
http://www.bom.gov.au/fwo/IDD60801/IDD60801.94327.json